sensor_id;sensor_type;location;lat;lon;timestamp;pressure;altitude;pressure_sealevel;temperature;humidity
75447;BME280;64024;55.820;37.574;2024-02-21T00:00:46;99572.81;;;17.29;31.74
75447;BME280;64024;55.820;37.574;2024-02-21T00:03:12;99564.94;;;17.22;31.99
75447;BME280;64024;55.820;37.574;2024-02-21T00:05:37;99571.25;;;17.16;32.06
75447;BME280;64024;55.820;37.574;2024-02-21T00:08:03;99571.19;;;17.11;32.33
75447;BME280;64024;55.820;37.574;2024-02-21T00:10:29;99559.53;;;17.05;32.32
75447;BME280;64024;55.820;37.574;2024-02-21T00:12:57;99558.63;;;17.00;32.59
75447;BME280;64024;55.820;37.574;2024-02-21T00:15:22;99555.03;;;16.94;32.59
75447;BME280;64024;55.820;37.574;2024-02-21T00:17:48;99561.16;;;16.89;32.66
75447;BME280;64024;55.820;37.574;2024-02-21T00:20:14;99557.56;;;16.84;32.84
75447;BME280;64024;55.820;37.574;2024-02-21T00:22:40;99562.00;;;16.78;32.79
75447;BME280;64024;55.820;37.574;2024-02-21T00:25:05;99561.91;;;16.73;32.98
75447;BME280;64024;55.820;37.574;2024-02-21T00:27:31;99564.47;;;16.68;33.11
75447;BME280;64024;55.820;37.574;2024-02-21T00:29:57;99553.66;;;16.63;33.08
75447;BME280;64024;55.820;37.574;2024-02-21T00:32:23;99552.50;;;16.59;33.44
75447;BME280;64024;55.820;37.574;2024-02-21T00:34:49;99543.53;;;16.53;33.40
75447;BME280;64024;55.820;37.574;2024-02-21T00:37:14;99554.97;;;16.49;33.41
75447;BME280;64024;55.820;37.574;2024-02-21T00:39:40;99548.72;;;16.43;33.58
75447;BME280;64024;55.820;37.574;2024-02-21T00:42:06;99552.94;;;16.39;33.52
75447;BME280;64024;55.820;37.574;2024-02-21T00:44:32;99545.59;;;16.34;33.81
75447;BME280;64024;55.820;37.574;2024-02-21T00:46:58;99540.94;;;16.30;33.67
75447;BME280;64024;55.820;37.574;2024-02-21T00:49:24;99532.78;;;16.25;33.79
75447;BME280;64024;55.820;37.574;2024-02-21T00:51:49;99531.41;;;16.22;34.08
75447;BME280;64024;55.820;37.574;2024-02-21T00:54:15;99528.59;;;16.17;33.91
75447;BME280;64024;55.820;37.574;2024-02-21T00:56:42;99533.66;;;16.13;34.04
75447;BME280;64024;55.820;37.574;2024-02-21T00:59:08;99527.13;;;16.09;34.02
75447;BME280;64024;55.820;37.574;2024-02-21T01:01:33;99530.28;;;16.06;34.14
75447;BME280;64024;55.820;37.574;2024-02-21T01:03:59;99526.44;;;16.02;34.48
75447;BME280;64024;55.820;37.574;2024-02-21T01:06:25;99521.53;;;15.99;34.51
75447;BME280;64024;55.820;37.574;2024-02-21T01:08:51;99521.19;;;15.96;34.34
75447;BME280;64024;55.820;37.574;2024-02-21T01:11:17;99519.22;;;15.91;34.51
75447;BME280;64024;55.820;37.574;2024-02-21T01:13:43;99501.97;;;15.87;34.65
75447;BME280;64024;55.820;37.574;2024-02-21T01:16:09;99512.34;;;15.83;34.85
75447;BME280;64024;55.820;37.574;2024-02-21T01:18:37;99502.13;;;15.80;34.85
75447;BME280;64024;55.820;37.574;2024-02-21T01:21:03;99511.44;;;15.78;34.84
75447;BME280;64024;55.820;37.574;2024-02-21T01:23:33;99499.31;;;15.75;34.72
75447;BME280;64024;55.820;37.574;2024-02-21T01:25:59;99511.34;;;15.73;34.78
75447;BME280;64024;55.820;37.574;2024-02-21T01:28:25;99501.09;;;15.70;34.82
75447;BME280;64024;55.820;37.574;2024-02-21T01:30:51;99498.84;;;15.66;35.11
75447;BME280;64024;55.820;37.574;2024-02-21T01:33:17;99482.41;;;15.63;34.86
75447;BME280;64024;55.820;37.574;2024-02-21T01:35:43;99492.56;;;15.61;34.99
75447;BME280;64024;55.820;37.574;2024-02-21T01:38:08;99493.81;;;15.58;35.10
75447;BME280;64024;55.820;37.574;2024-02-21T01:40:34;99493.47;;;15.55;35.04
75447;BME280;64024;55.820;37.574;2024-02-21T01:42:59;99495.59;;;15.53;35.45
75447;BME280;64024;55.820;37.574;2024-02-21T01:45:25;99487.19;;;15.49;35.04
75447;BME280;64024;55.820;37.574;2024-02-21T01:47:50;99484.78;;;15.48;35.39
75447;BME280;64024;55.820;37.574;2024-02-21T01:50:17;99487.09;;;15.44;35.43
75447;BME280;64024;55.820;37.574;2024-02-21T01:52:46;99480.34;;;15.41;35.09
75447;BME280;64024;55.820;37.574;2024-02-21T01:55:13;99490.47;;;15.39;35.67
75447;BME280;64024;55.820;37.574;2024-02-21T01:57:40;99485.59;;;15.36;35.77
75447;BME280;64024;55.820;37.574;2024-02-21T02:00:07;99481.50;;;15.34;35.47
75447;BME280;64024;55.820;37.574;2024-02-21T02:02:35;99484.41;;;15.32;35.55
75447;BME280;64024;55.820;37.574;2024-02-21T02:05:04;99479.88;;;15.33;35.58
75447;BME280;64024;55.820;37.574;2024-02-21T02:07:31;99481.28;;;15.35;35.63
75447;BME280;64024;55.820;37.574;2024-02-21T02:09:57;99480.56;;;15.40;35.69
75447;BME280;64024;55.820;37.574;2024-02-21T02:12:23;99479.63;;;15.46;35.79
75447;BME280;64024;55.820;37.574;2024-02-21T02:15:00;99478.00;;;15.57;35.95
75447;BME280;64024;55.820;37.574;2024-02-21T02:17:27;99482.06;;;15.71;35.72
75447;BME280;64024;55.820;37.574;2024-02-21T02:19:52;99474.38;;;15.86;35.60
75447;BME280;64024;55.820;37.574;2024-02-21T02:22:22;99478.53;;;16.06;35.54
75447;BME280;64024;55.820;37.574;2024-02-21T02:24:49;99478.13;;;16.26;35.33
75447;BME280;64024;55.820;37.574;2024-02-21T02:27:15;99480.59;;;16.44;35.12
75447;BME280;64024;55.820;37.574;2024-02-21T02:29:41;99480.38;;;16.62;35.05
75447;BME280;64024;55.820;37.574;2024-02-21T02:32:07;99480.41;;;16.79;35.03
75447;BME280;64024;55.820;37.574;2024-02-21T02:34:32;99474.84;;;16.98;34.70
75447;BME280;64024;55.820;37.574;2024-02-21T02:36:58;99471.88;;;17.16;34.58
75447;BME280;64024;55.820;37.574;2024-02-21T02:39:23;99465.19;;;17.35;34.29
75447;BME280;64024;55.820;37.574;2024-02-21T02:41:49;99471.34;;;17.53;34.18
75447;BME280;64024;55.820;37.574;2024-02-21T02:44:15;99475.81;;;17.64;34.07
75447;BME280;64024;55.820;37.574;2024-02-21T02:46:41;99468.31;;;17.66;33.97
75447;BME280;64024;55.820;37.574;2024-02-21T02:49:07;99470.19;;;17.65;33.81
75447;BME280;64024;55.820;37.574;2024-02-21T02:51:33;99471.50;;;17.63;34.00
75447;BME280;64024;55.820;37.574;2024-02-21T02:53:58;99469.31;;;17.60;34.03
75447;BME280;64024;55.820;37.574;2024-02-21T02:56:24;99476.25;;;17.56;34.13
75447;BME280;64024;55.820;37.574;2024-02-21T02:58:49;99474.31;;;17.51;33.98
75447;BME280;64024;55.820;37.574;2024-02-21T03:01:15;99469.41;;;17.48;34.04
75447;BME280;64024;55.820;37.574;2024-02-21T03:03:41;99476.59;;;17.43;34.25
75447;BME280;64024;55.820;37.574;2024-02-21T03:06:06;99473.81;;;17.37;34.35
75447;BME280;64024;55.820;37.574;2024-02-21T03:08:32;99476.44;;;17.32;34.47
75447;BME280;64024;55.820;37.574;2024-02-21T03:10:58;99474.75;;;17.26;34.59
75447;BME280;64024;55.820;37.574;2024-02-21T03:13:25;99473.59;;;17.22;35.00
75447;BME280;64024;55.820;37.574;2024-02-21T03:15:51;99467.59;;;17.15;35.09
75447;BME280;64024;55.820;37.574;2024-02-21T03:18:16;99470.75;;;17.12;35.24
75447;BME280;64024;55.820;37.574;2024-02-21T03:20:42;99472.31;;;17.08;35.44
75447;BME280;64024;55.820;37.574;2024-02-21T03:23:08;99468.72;;;17.02;35.61
75447;BME280;64024;55.820;37.574;2024-02-21T03:25:33;99471.09;;;16.99;35.91
75447;BME280;64024;55.820;37.574;2024-02-21T03:27:59;99459.22;;;16.95;35.94
75447;BME280;64024;55.820;37.574;2024-02-21T03:30:25;99466.38;;;16.89;36.16
75447;BME280;64024;55.820;37.574;2024-02-21T03:32:51;99463.63;;;16.84;36.07
75447;BME280;64024;55.820;37.574;2024-02-21T03:35:16;99463.50;;;16.79;35.96
75447;BME280;64024;55.820;37.574;2024-02-21T03:37:42;99473.91;;;16.75;36.07
75447;BME280;64024;55.820;37.574;2024-02-21T03:40:09;99469.50;;;16.69;36.22
75447;BME280;64024;55.820;37.574;2024-02-21T03:42:34;99464.03;;;16.64;36.01
75447;BME280;64024;55.820;37.574;2024-02-21T03:45:00;99454.84;;;16.60;36.17
75447;BME280;64024;55.820;37.574;2024-02-21T03:47:25;99464.44;;;16.56;36.07
75447;BME280;64024;55.820;37.574;2024-02-21T03:49:51;99460.03;;;16.50;36.21
75447;BME280;64024;55.820;37.574;2024-02-21T03:52:17;99457.00;;;16.46;36.14
75447;BME280;64024;55.820;37.574;2024-02-21T03:54:42;99464.75;;;16.43;36.01
75447;BME280;64024;55.820;37.574;2024-02-21T03:57:08;99470.59;;;16.39;36.07
75447;BME280;64024;55.820;37.574;2024-02-21T03:59:33;99464.06;;;16.35;35.95
75447;BME280;64024;55.820;37.574;2024-02-21T04:01:59;99467.22;;;16.32;36.32
75447;BME280;64024;55.820;37.574;2024-02-21T04:04:25;99462.59;;;16.28;36.04
75447;BME280;64024;55.820;37.574;2024-02-21T04:06:51;99472.16;;;16.24;36.28
75447;BME280;64024;55.820;37.574;2024-02-21T04:09:17;99468.06;;;16.21;36.25
75447;BME280;64024;55.820;37.574;2024-02-21T04:11:43;99462.50;;;16.23;35.97
75447;BME280;64024;55.820;37.574;2024-02-21T04:14:09;99469.00;;;16.27;36.34
75447;BME280;64024;55.820;37.574;2024-02-21T04:16:36;99466.97;;;16.34;36.15
75447;BME280;64024;55.820;37.574;2024-02-21T04:19:02;99477.66;;;16.46;36.20
75447;BME280;64024;55.820;37.574;2024-02-21T04:21:28;99461.28;;;16.59;36.11
75447;BME280;64024;55.820;37.574;2024-02-21T04:23:53;99469.38;;;16.76;36.04
75447;BME280;64024;55.820;37.574;2024-02-21T04:26:19;99472.06;;;16.93;35.91
75447;BME280;64024;55.820;37.574;2024-02-21T04:28:45;99469.38;;;17.09;35.77
75447;BME280;64024;55.820;37.574;2024-02-21T04:31:11;99465.63;;;17.27;35.55
75447;BME280;64024;55.820;37.574;2024-02-21T04:33:37;99465.34;;;17.46;35.37
75447;BME280;64024;55.820;37.574;2024-02-21T04:36:02;99472.53;;;17.62;35.23
75447;BME280;64024;55.820;37.574;2024-02-21T04:38:28;99468.13;;;17.73;35.07
75447;BME280;64024;55.820;37.574;2024-02-21T04:40:55;99469.75;;;17.74;34.95
75447;BME280;64024;55.820;37.574;2024-02-21T04:43:24;99467.06;;;17.74;34.81
75447;BME280;64024;55.820;37.574;2024-02-21T04:45:50;99464.06;;;17.70;34.94
75447;BME280;64024;55.820;37.574;2024-02-21T04:48:16;99466.41;;;17.67;34.67
75447;BME280;64024;55.820;37.574;2024-02-21T04:50:42;99460.75;;;17.63;34.83
75447;BME280;64024;55.820;37.574;2024-02-21T04:53:07;99471.19;;;17.59;35.06
75447;BME280;64024;55.820;37.574;2024-02-21T04:55:33;99461.75;;;17.57;34.98
75447;BME280;64024;55.820;37.574;2024-02-21T04:57:58;99459.78;;;17.52;35.13
75447;BME280;64024;55.820;37.574;2024-02-21T05:00:25;99456.25;;;17.47;35.21
75447;BME280;64024;55.820;37.574;2024-02-21T05:02:51;99458.59;;;17.43;35.33
75447;BME280;64024;55.820;37.574;2024-02-21T05:05:17;99460.38;;;17.37;35.25
75447;BME280;64024;55.820;37.574;2024-02-21T05:07:43;99473.53;;;17.34;35.33
75447;BME280;64024;55.820;37.574;2024-02-21T05:10:09;99461.06;;;17.28;35.31
75447;BME280;64024;55.820;37.574;2024-02-21T05:12:35;99473.34;;;17.24;35.26
75447;BME280;64024;55.820;37.574;2024-02-21T05:15:01;99477.03;;;17.18;35.15
75447;BME280;64024;55.820;37.574;2024-02-21T05:17:28;99463.50;;;17.12;35.48
75447;BME280;64024;55.820;37.574;2024-02-21T05:19:53;99476.63;;;17.09;35.40
75447;BME280;64024;55.820;37.574;2024-02-21T05:22:19;99464.97;;;17.03;35.54
75447;BME280;64024;55.820;37.574;2024-02-21T05:24:45;99473.78;;;16.99;35.80
75447;BME280;64024;55.820;37.574;2024-02-21T05:27:11;99463.75;;;16.94;35.66
75447;BME280;64024;55.820;37.574;2024-02-21T05:29:36;99473.09;;;16.92;35.67
75447;BME280;64024;55.820;37.574;2024-02-21T05:32:02;99463.91;;;16.87;35.63
75447;BME280;64024;55.820;37.574;2024-02-21T05:34:28;99470.00;;;16.83;35.82
75447;BME280;64024;55.820;37.574;2024-02-21T05:36:54;99460.81;;;16.79;35.87
75447;BME280;64024;55.820;37.574;2024-02-21T05:39:20;99473.91;;;16.75;35.82
75447;BME280;64024;55.820;37.574;2024-02-21T05:41:48;99467.38;;;16.71;35.90
75447;BME280;64024;55.820;37.574;2024-02-21T05:44:15;99469.75;;;16.68;35.90
75447;BME280;64024;55.820;37.574;2024-02-21T05:46:41;99463.25;;;16.63;36.00
75447;BME280;64024;55.820;37.574;2024-02-21T05:49:06;99460.22;;;16.60;36.06
75447;BME280;64024;55.820;37.574;2024-02-21T05:51:33;99469.56;;;16.57;36.14
75447;BME280;64024;55.820;37.574;2024-02-21T05:53:59;99465.50;;;16.55;36.25
75447;BME280;64024;55.820;37.574;2024-02-21T05:56:25;99471.56;;;16.50;36.13
75447;BME280;64024;55.820;37.574;2024-02-21T05:58:50;99464.81;;;16.48;36.21
75447;BME280;64024;55.820;37.574;2024-02-21T06:01:16;99472.53;;;16.44;36.12
75447;BME280;64024;55.820;37.574;2024-02-21T06:03:43;99467.66;;;16.41;36.21
75447;BME280;64024;55.820;37.574;2024-02-21T06:06:08;99471.06;;;16.36;36.47
75447;BME280;64024;55.820;37.574;2024-02-21T06:08:34;99474.00;;;16.35;36.50
75447;BME280;64024;55.820;37.574;2024-02-21T06:11:00;99466.16;;;16.33;36.57
75447;BME280;64024;55.820;37.574;2024-02-21T06:13:26;99470.97;;;16.31;36.57
75447;BME280;64024;55.820;37.574;2024-02-21T06:15:52;99470.38;;;16.29;36.54
75447;BME280;64024;55.820;37.574;2024-02-21T06:18:18;99467.13;;;16.27;36.63
75447;BME280;64024;55.820;37.574;2024-02-21T06:20:45;99469.56;;;16.29;36.75
75447;BME280;64024;55.820;37.574;2024-02-21T06:23:16;99464.28;;;16.34;36.99
75447;BME280;64024;55.820;37.574;2024-02-21T06:25:42;99466.03;;;16.40;36.83
75447;BME280;64024;55.820;37.574;2024-02-21T06:28:08;99467.25;;;16.49;36.68
75447;BME280;64024;55.820;37.574;2024-02-21T06:30:35;99471.50;;;16.62;36.70
75447;BME280;64024;55.820;37.574;2024-02-21T06:33:01;99471.00;;;16.77;36.69
75447;BME280;64024;55.820;37.574;2024-02-21T06:35:28;99462.69;;;16.95;36.44
75447;BME280;64024;55.820;37.574;2024-02-21T06:37:54;99462.47;;;17.13;36.24
75447;BME280;64024;55.820;37.574;2024-02-21T06:40:23;99469.78;;;17.35;36.13
75447;BME280;64024;55.820;37.574;2024-02-21T06:42:49;99467.38;;;17.55;35.97
75447;BME280;64024;55.820;37.574;2024-02-21T06:45:15;99468.41;;;17.71;35.78
75447;BME280;64024;55.820;37.574;2024-02-21T06:47:41;99460.75;;;17.80;35.49
75447;BME280;64024;55.820;37.574;2024-02-21T06:50:07;99472.63;;;17.84;35.50
75447;BME280;64024;55.820;37.574;2024-02-21T06:52:34;99459.16;;;17.84;34.87
75447;BME280;64024;55.820;37.574;2024-02-21T06:54:59;99461.88;;;17.84;35.39
75447;BME280;64024;55.820;37.574;2024-02-21T06:57:25;99461.88;;;17.84;35.31
75447;BME280;64024;55.820;37.574;2024-02-21T06:59:51;99459.41;;;17.82;35.20
75447;BME280;64024;55.820;37.574;2024-02-21T07:02:17;99465.03;;;17.81;34.94
75447;BME280;64024;55.820;37.574;2024-02-21T07:04:43;99468.00;;;17.79;35.39
75447;BME280;64024;55.820;37.574;2024-02-21T07:07:09;99461.22;;;17.77;35.22
75447;BME280;64024;55.820;37.574;2024-02-21T07:09:35;99466.88;;;17.75;35.07
75447;BME280;64024;55.820;37.574;2024-02-21T07:12:00;99443.13;;;17.72;35.22
75447;BME280;64024;55.820;37.574;2024-02-21T07:14:28;99442.31;;;17.72;35.21
75447;BME280;64024;55.820;37.574;2024-02-21T07:16:54;99436.94;;;17.72;35.30
75447;BME280;64024;55.820;37.574;2024-02-21T07:19:20;99440.44;;;17.72;35.18
75447;BME280;64024;55.820;37.574;2024-02-21T07:21:45;99436.69;;;17.73;35.19
75447;BME280;64024;55.820;37.574;2024-02-21T07:24:11;99441.03;;;17.74;35.01
75447;BME280;64024;55.820;37.574;2024-02-21T07:26:40;99434.25;;;17.72;35.13
75447;BME280;64024;55.820;37.574;2024-02-21T07:29:06;99431.56;;;17.72;35.27
75447;BME280;64024;55.820;37.574;2024-02-21T07:31:38;99438.81;;;17.71;35.14
75447;BME280;64024;55.820;37.574;2024-02-21T07:34:05;99436.69;;;17.73;34.95
75447;BME280;64024;55.820;37.574;2024-02-21T07:36:31;99434.81;;;17.74;35.05
75447;BME280;64024;55.820;37.574;2024-02-21T07:38:56;99444.75;;;17.73;35.14
75447;BME280;64024;55.820;37.574;2024-02-21T07:41:22;99424.06;;;17.74;35.11
75447;BME280;64024;55.820;37.574;2024-02-21T07:43:48;99434.81;;;17.74;35.06
75447;BME280;64024;55.820;37.574;2024-02-21T07:46:17;99433.75;;;17.75;35.28
75447;BME280;64024;55.820;37.574;2024-02-21T07:48:45;99433.75;;;17.75;35.24
75447;BME280;64024;55.820;37.574;2024-02-21T07:51:10;99425.47;;;17.76;35.03
75447;BME280;64024;55.820;37.574;2024-02-21T07:53:36;99430.03;;;17.76;35.22
75447;BME280;64024;55.820;37.574;2024-02-21T07:56:03;99427.34;;;17.76;35.07
75447;BME280;64024;55.820;37.574;2024-02-21T07:58:29;99434.34;;;17.77;35.10
75447;BME280;64024;55.820;37.574;2024-02-21T08:00:54;99423.59;;;17.77;35.20
75447;BME280;64024;55.820;37.574;2024-02-21T08:03:20;99420.66;;;17.78;35.11
75447;BME280;64024;55.820;37.574;2024-02-21T08:05:46;99417.16;;;17.78;35.13
75447;BME280;64024;55.820;37.574;2024-02-21T08:08:12;99417.16;;;17.78;35.28
75447;BME280;64024;55.820;37.574;2024-02-21T08:10:43;99414.22;;;17.79;35.02
75447;BME280;64024;55.820;37.574;2024-02-21T08:13:09;99411.53;;;17.79;35.12
75447;BME280;64024;55.820;37.574;2024-02-21T08:15:34;99416.66;;;17.81;35.26
75447;BME280;64024;55.820;37.574;2024-02-21T08:18:00;99416.38;;;17.82;35.27
75447;BME280;64024;55.820;37.574;2024-02-21T08:20:27;99412.88;;;17.82;35.50
75447;BME280;64024;55.820;37.574;2024-02-21T08:22:53;99417.19;;;17.83;35.63
75447;BME280;64024;55.820;37.574;2024-02-21T08:25:18;99415.09;;;17.85;35.30
75447;BME280;64024;55.820;37.574;2024-02-21T08:27:44;99412.41;;;17.85;35.35
75447;BME280;64024;55.820;37.574;2024-02-21T08:30:11;99407.84;;;17.85;35.45
75447;BME280;64024;55.820;37.574;2024-02-21T08:32:37;99416.69;;;17.86;35.40
75447;BME280;64024;55.820;37.574;2024-02-21T08:35:03;99419.16;;;17.87;35.36
75447;BME280;64024;55.820;37.574;2024-02-21T08:37:29;99415.91;;;17.85;35.42
75447;BME280;64024;55.820;37.574;2024-02-21T08:39:54;99418.03;;;17.83;35.34
75447;BME280;64024;55.820;37.574;2024-02-21T08:42:20;99409.41;;;17.81;35.46
75447;BME280;64024;55.820;37.574;2024-02-21T08:44:46;99411.28;;;17.81;35.59
75447;BME280;64024;55.820;37.574;2024-02-21T08:47:30;99411.28;;;17.81;35.37
75447;BME280;64024;55.820;37.574;2024-02-21T08:49:55;99410.69;;;17.79;35.70
75447;BME280;64024;55.820;37.574;2024-02-21T08:52:21;99411.78;;;17.78;36.00
75447;BME280;64024;55.820;37.574;2024-02-21T08:54:47;99402.09;;;17.77;36.00
75447;BME280;64024;55.820;37.574;2024-02-21T08:57:12;99409.34;;;17.76;36.10
75447;BME280;64024;55.820;37.574;2024-02-21T08:59:56;99400.22;;;17.77;36.30
75447;BME280;64024;55.820;37.574;2024-02-21T09:02:41;99402.09;;;17.77;36.27
75447;BME280;64024;55.820;37.574;2024-02-21T09:05:10;99402.09;;;17.77;36.52
75447;BME280;64024;55.820;37.574;2024-02-21T09:07:36;99407.72;;;17.75;36.59
75447;BME280;64024;55.820;37.574;2024-02-21T09:10:02;99406.88;;;17.75;36.47
75447;BME280;64024;55.820;37.574;2024-02-21T09:12:28;99410.41;;;17.75;36.44
75447;BME280;64024;55.820;37.574;2024-02-21T09:14:54;99402.56;;;17.74;36.69
75447;BME280;64024;55.820;37.574;2024-02-21T09:17:20;99398.25;;;17.73;36.73
75447;BME280;64024;55.820;37.574;2024-02-21T09:19:47;99402.00;;;17.72;36.67
75447;BME280;64024;55.820;37.574;2024-02-21T09:22:13;99402.00;;;17.72;36.63
75447;BME280;64024;55.820;37.574;2024-02-21T09:24:39;99393.13;;;17.71;36.50
75447;BME280;64024;55.820;37.574;2024-02-21T09:27:05;99398.50;;;17.71;36.61
75447;BME280;64024;55.820;37.574;2024-02-21T09:29:31;99397.44;;;17.72;36.43
75447;BME280;64024;55.820;37.574;2024-02-21T09:31:59;99398.25;;;17.73;36.40
75447;BME280;64024;55.820;37.574;2024-02-21T09:34:24;99403.63;;;17.73;36.56
75447;BME280;64024;55.820;37.574;2024-02-21T09:36:50;99391.00;;;17.73;36.50
75447;BME280;64024;55.820;37.574;2024-02-21T09:39:16;99389.09;;;17.74;36.44
75447;BME280;64024;55.820;37.574;2024-02-21T09:41:48;99388.19;;;17.85;36.46
75447;BME280;64024;55.820;37.574;2024-02-21T09:44:19;99382.78;;;17.80;36.23
75447;BME280;64024;55.820;37.574;2024-02-21T09:46:47;99378.84;;;17.87;36.30
75447;BME280;64024;55.820;37.574;2024-02-21T09:49:31;99379.00;;;17.81;36.23
75447;BME280;64024;55.820;37.574;2024-02-21T09:52:05;99381.38;;;17.77;36.01
75447;BME280;64024;55.820;37.574;2024-02-21T09:54:32;99386.31;;;17.85;36.24
75447;BME280;64024;55.820;37.574;2024-02-21T09:57:02;99376.00;;;17.77;36.21
75447;BME280;64024;55.820;37.574;2024-02-21T09:59:30;99372.97;;;17.74;36.36
75447;BME280;64024;55.820;37.574;2024-02-21T10:01:56;99378.63;;;17.72;36.59
75447;BME280;64024;55.820;37.574;2024-02-21T10:04:23;99367.06;;;17.72;36.58
75447;BME280;64024;55.820;37.574;2024-02-21T10:06:49;99383.41;;;17.70;36.53
75447;BME280;64024;55.820;37.574;2024-02-21T10:11:49;99390.66;;;17.70;36.53
75447;BME280;64024;55.820;37.574;2024-02-21T10:14:15;99378.31;;;17.69;36.67
75447;BME280;64024;55.820;37.574;2024-02-21T10:16:41;99375.63;;;17.69;36.56
75447;BME280;64024;55.820;37.574;2024-02-21T10:19:16;99365.66;;;17.69;36.59
75447;BME280;64024;55.820;37.574;2024-02-21T10:21:42;99367.56;;;17.69;36.74
75447;BME280;64024;55.820;37.574;2024-02-21T10:24:08;99359.75;;;17.67;36.67
75447;BME280;64024;55.820;37.574;2024-02-21T10:26:35;99373.31;;;17.77;36.73
75447;BME280;64024;55.820;37.574;2024-02-21T10:29:02;99364.38;;;17.72;36.71
75447;BME280;64024;55.820;37.574;2024-02-21T10:31:28;99354.91;;;17.69;36.71
75447;BME280;64024;55.820;37.574;2024-02-21T10:33:58;99349.00;;;17.67;36.83
75447;BME280;64024;55.820;37.574;2024-02-21T10:36:43;99358.69;;;17.68;37.00
75447;BME280;64024;55.820;37.574;2024-02-21T10:39:09;99354.38;;;17.67;37.01
75447;BME280;64024;55.820;37.574;2024-02-21T10:41:36;99357.28;;;17.65;37.04
75447;BME280;64024;55.820;37.574;2024-02-21T10:44:05;99359.97;;;17.65;36.98
75447;BME280;64024;55.820;37.574;2024-02-21T10:46:32;99361.88;;;17.65;37.00
75447;BME280;64024;55.820;37.574;2024-02-21T10:49:07;99354.59;;;17.65;37.16
75447;BME280;64024;55.820;37.574;2024-02-21T10:51:35;99360.69;;;17.78;36.99
75447;BME280;64024;55.820;37.574;2024-02-21T10:56:56;99361.28;;;17.80;37.50
75447;BME280;64024;55.820;37.574;2024-02-21T10:59:23;99368.81;;;17.83;37.34
75447;BME280;64024;55.820;37.574;2024-02-21T11:01:51;99353.78;;;17.87;37.56
75447;BME280;64024;55.820;37.574;2024-02-21T11:04:18;99352.50;;;17.89;37.30
75447;BME280;64024;55.820;37.574;2024-02-21T11:06:44;99360.59;;;17.95;37.79
75447;BME280;64024;55.820;37.574;2024-02-21T11:09:11;99355.53;;;17.98;37.79
75447;BME280;64024;55.820;37.574;2024-02-21T11:11:43;99348.59;;;18.02;37.96
75447;BME280;64024;55.820;37.574;2024-02-21T11:14:19;99342.94;;;18.04;37.71
75447;BME280;64024;55.820;37.574;2024-02-21T11:16:45;99344.59;;;18.05;37.48
75447;BME280;64024;55.820;37.574;2024-02-21T11:19:27;99330.34;;;18.04;37.35
75447;BME280;64024;55.820;37.574;2024-02-21T11:21:55;99342.13;;;18.03;37.23
75447;BME280;64024;55.820;37.574;2024-02-21T11:24:33;99330.84;;;18.01;37.23
75447;BME280;64024;55.820;37.574;2024-02-21T11:27:27;99334.59;;;18.00;37.23
75447;BME280;64024;55.820;37.574;2024-02-21T11:29:57;99333.22;;;17.98;37.19
75447;BME280;64024;55.820;37.574;2024-02-21T11:32:25;99321.34;;;17.94;37.20
75447;BME280;64024;55.820;37.574;2024-02-21T11:34:58;99327.22;;;17.91;37.31
75447;BME280;64024;55.820;37.574;2024-02-21T11:37:27;99320.22;;;17.89;37.10
75447;BME280;64024;55.820;37.574;2024-02-21T11:39:54;99326.09;;;17.86;37.24
75447;BME280;64024;55.820;37.574;2024-02-21T11:42:20;99331.16;;;17.83;37.34
75447;BME280;64024;55.820;37.574;2024-02-21T11:44:46;99325.25;;;17.81;37.20
75447;BME280;64024;55.820;37.574;2024-02-21T11:47:14;99315.81;;;17.78;37.50
75447;BME280;64024;55.820;37.574;2024-02-21T11:49:45;99320.63;;;17.76;37.48
75447;BME280;64024;55.820;37.574;2024-02-21T11:52:16;99312.00;;;17.74;37.42
75447;BME280;64024;55.820;37.574;2024-02-21T11:54:44;99316.00;;;17.72;37.59
75447;BME280;64024;55.820;37.574;2024-02-21T11:57:10;99320.78;;;17.70;37.67
75447;BME280;64024;55.820;37.574;2024-02-21T11:59:36;99320.25;;;17.68;37.56
75447;BME280;64024;55.820;37.574;2024-02-21T12:02:03;99310.81;;;17.65;37.73
75447;BME280;64024;55.820;37.574;2024-02-21T12:04:29;99316.44;;;17.63;37.85
75447;BME280;64024;55.820;37.574;2024-02-21T12:06:57;99306.75;;;17.62;37.85
75447;BME280;64024;55.820;37.574;2024-02-21T12:09:26;99298.69;;;17.62;37.98
75447;BME280;64024;55.820;37.574;2024-02-21T12:12:04;99318.06;;;17.64;38.08
75447;BME280;64024;55.820;37.574;2024-02-21T12:14:31;99310.31;;;17.68;38.07
75447;BME280;64024;55.820;37.574;2024-02-21T12:16:58;99310.63;;;17.72;38.16
75447;BME280;64024;55.820;37.574;2024-02-21T12:19:24;99301.25;;;17.74;38.09
75447;BME280;64024;55.820;37.574;2024-02-21T12:21:50;99304.25;;;17.78;37.94
75447;BME280;64024;55.820;37.574;2024-02-21T12:24:21;99308.00;;;17.77;37.83
75447;BME280;64024;55.820;37.574;2024-02-21T12:26:48;99309.06;;;17.76;37.63
75447;BME280;64024;55.820;37.574;2024-02-21T12:29:14;99296.91;;;17.73;37.70
75447;BME280;64024;55.820;37.574;2024-02-21T12:31:40;99301.16;;;17.69;37.62
75447;BME280;64024;55.820;37.574;2024-02-21T12:34:06;99302.47;;;17.67;37.50
75447;BME280;64024;55.820;37.574;2024-02-21T12:36:32;99299.50;;;17.63;37.85
75447;BME280;64024;55.820;37.574;2024-02-21T12:38:58;99301.88;;;17.59;37.99
75447;BME280;64024;55.820;37.574;2024-02-21T12:41:24;99306.13;;;17.55;37.97
75447;BME280;64024;55.820;37.574;2024-02-21T12:43:53;99299.63;;;17.51;38.07
75447;BME280;64024;55.820;37.574;2024-02-21T12:46:19;99293.94;;;17.48;38.10
75447;BME280;64024;55.820;37.574;2024-02-21T12:48:44;99303.56;;;17.44;38.24
75447;BME280;64024;55.820;37.574;2024-02-21T12:51:10;99296.00;;;17.40;38.19
75447;BME280;64024;55.820;37.574;2024-02-21T12:53:36;99293.00;;;17.37;38.18